sensor_id;sensor_type;location;lat;lon;timestamp;P1;durP1;ratioP1;P2;durP2;ratioP2
68398;SDS011;56258;52.196;13.868;2022-11-15T00:00:51;8.05;;;3.35;;
68398;SDS011;56258;52.196;13.868;2022-11-15T00:03:18;7.95;;;2.90;;
68398;SDS011;56258;52.196;13.868;2022-11-15T00:05:54;9.20;;;3.35;;
68398;SDS011;56258;52.196;13.868;2022-11-15T00:08:21;8.68;;;3.25;;
68398;SDS011;56258;52.196;13.868;2022-11-15T00:11:00;8.80;;;3.25;;
68398;SDS011;56258;52.196;13.868;2022-11-15T00:13:28;8.15;;;3.17;;
68398;SDS011;56258;52.196;13.868;2022-11-15T00:15:56;8.40;;;3.30;;
68398;SDS011;56258;52.196;13.868;2022-11-15T00:18:24;9.00;;;3.33;;
68398;SDS011;56258;52.196;13.868;2022-11-15T00:20:51;8.80;;;3.50;;
68398;SDS011;56258;52.196;13.868;2022-11-15T00:23:17;7.90;;;3.28;;
68398;SDS011;56258;52.196;13.868;2022-11-15T00:25:44;8.15;;;2.97;;
68398;SDS011;56258;52.196;13.868;2022-11-15T00:28:11;8.13;;;3.17;;
68398;SDS011;56258;52.196;13.868;2022-11-15T00:30:38;8.55;;;2.70;;
68398;SDS011;56258;52.196;13.868;2022-11-15T00:33:05;7.03;;;2.92;;
68398;SDS011;56258;52.196;13.868;2022-11-15T00:35:32;8.13;;;2.92;;
68398;SDS011;56258;52.196;13.868;2022-11-15T00:38:00;7.10;;;2.63;;
68398;SDS011;56258;52.196;13.868;2022-11-15T00:40:27;7.45;;;2.90;;
68398;SDS011;56258;52.196;13.868;2022-11-15T00:42:54;7.18;;;2.60;;
68398;SDS011;56258;52.196;13.868;2022-11-15T00:45:21;7.35;;;2.90;;
68398;SDS011;56258;52.196;13.868;2022-11-15T00:47:48;7.65;;;3.03;;
68398;SDS011;56258;52.196;13.868;2022-11-15T00:50:15;6.88;;;2.38;;
68398;SDS011;56258;52.196;13.868;2022-11-15T00:52:42;7.05;;;2.67;;
68398;SDS011;56258;52.196;13.868;2022-11-15T00:55:16;6.85;;;2.58;;
68398;SDS011;56258;52.196;13.868;2022-11-15T00:57:44;6.53;;;2.42;;
68398;SDS011;56258;52.196;13.868;2022-11-15T01:00:11;6.60;;;2.30;;
68398;SDS011;56258;52.196;13.868;2022-11-15T01:02:39;6.85;;;2.42;;
68398;SDS011;56258;52.196;13.868;2022-11-15T01:05:05;6.88;;;2.50;;
68398;SDS011;56258;52.196;13.868;2022-11-15T01:07:32;6.28;;;2.40;;
68398;SDS011;56258;52.196;13.868;2022-11-15T01:09:59;6.03;;;2.22;;
68398;SDS011;56258;52.196;13.868;2022-11-15T01:12:26;6.45;;;2.25;;
68398;SDS011;56258;52.196;13.868;2022-11-15T01:14:52;7.13;;;2.78;;
68398;SDS011;56258;52.196;13.868;2022-11-15T01:17:19;6.65;;;2.33;;
68398;SDS011;56258;52.196;13.868;2022-11-15T01:19:45;6.53;;;2.67;;
68398;SDS011;56258;52.196;13.868;2022-11-15T01:22:12;6.47;;;2.30;;
68398;SDS011;56258;52.196;13.868;2022-11-15T01:24:39;7.65;;;2.60;;
68398;SDS011;56258;52.196;13.868;2022-11-15T01:27:05;6.97;;;2.47;;
68398;SDS011;56258;52.196;13.868;2022-11-15T01:29:32;6.00;;;2.30;;
68398;SDS011;56258;52.196;13.868;2022-11-15T01:31:59;6.82;;;2.35;;
68398;SDS011;56258;52.196;13.868;2022-11-15T01:34:25;6.70;;;2.25;;
68398;SDS011;56258;52.196;13.868;2022-11-15T01:36:52;6.55;;;2.40;;
68398;SDS011;56258;52.196;13.868;2022-11-15T01:39:18;6.55;;;2.50;;
68398;SDS011;56258;52.196;13.868;2022-11-15T01:41:45;6.47;;;2.22;;
68398;SDS011;56258;52.196;13.868;2022-11-15T01:47:05;6.22;;;2.38;;
68398;SDS011;56258;52.196;13.868;2022-11-15T01:49:47;5.78;;;2.03;;
68398;SDS011;56258;52.196;13.868;2022-11-15T01:52:26;6.13;;;1.95;;
68398;SDS011;56258;52.196;13.868;2022-11-15T01:55:00;6.35;;;2.30;;
68398;SDS011;56258;52.196;13.868;2022-11-15T01:57:39;6.63;;;2.55;;
68398;SDS011;56258;52.196;13.868;2022-11-15T02:00:10;6.47;;;2.30;;
68398;SDS011;56258;52.196;13.868;2022-11-15T02:02:37;6.13;;;2.10;;
68398;SDS011;56258;52.196;13.868;2022-11-15T02:05:05;6.40;;;2.38;;
68398;SDS011;56258;52.196;13.868;2022-11-15T02:07:33;5.78;;;1.98;;
68398;SDS011;56258;52.196;13.868;2022-11-15T02:10:06;6.35;;;2.30;;
68398;SDS011;56258;52.196;13.868;2022-11-15T02:12:40;5.70;;;1.95;;
68398;SDS011;56258;52.196;13.868;2022-11-15T02:15:08;5.85;;;2.10;;
68398;SDS011;56258;52.196;13.868;2022-11-15T02:20:19;6.07;;;2.00;;
68398;SDS011;56258;52.196;13.868;2022-11-15T02:23:15;6.20;;;2.30;;
68398;SDS011;56258;52.196;13.868;2022-11-15T02:26:07;6.05;;;2.05;;
68398;SDS011;56258;52.196;13.868;2022-11-15T02:40:00;6.20;;;2.08;;
68398;SDS011;56258;52.196;13.868;2022-11-15T02:42:40;6.25;;;2.30;;
68398;SDS011;56258;52.196;13.868;2022-11-15T02:45:35;5.70;;;1.98;;
68398;SDS011;56258;52.196;13.868;2022-11-15T02:48:05;5.60;;;2.00;;
68398;SDS011;56258;52.196;13.868;2022-11-15T02:50:35;5.60;;;2.00;;
68398;SDS011;56258;52.196;13.868;2022-11-15T02:53:02;5.35;;;1.65;;
68398;SDS011;56258;52.196;13.868;2022-11-15T02:55:33;6.10;;;2.15;;
68398;SDS011;56258;52.196;13.868;2022-11-15T03:00:58;6.50;;;2.40;;
68398;SDS011;56258;52.196;13.868;2022-11-15T03:07:04;5.68;;;2.00;;
68398;SDS011;56258;52.196;13.868;2022-11-15T03:09:47;6.07;;;1.92;;
68398;SDS011;56258;52.196;13.868;2022-11-15T03:17:58;5.90;;;2.13;;
68398;SDS011;56258;52.196;13.868;2022-11-15T03:20:28;6.07;;;2.05;;
68398;SDS011;56258;52.196;13.868;2022-11-15T03:23:09;6.13;;;2.00;;
68398;SDS011;56258;52.196;13.868;2022-11-15T03:25:40;6.82;;;2.10;;
68398;SDS011;56258;52.196;13.868;2022-11-15T03:28:10;7.13;;;2.50;;
68398;SDS011;56258;52.196;13.868;2022-11-15T03:30:39;5.80;;;1.92;;
68398;SDS011;56258;52.196;13.868;2022-11-15T03:33:07;7.10;;;2.40;;
68398;SDS011;56258;52.196;13.868;2022-11-15T03:35:37;6.43;;;2.10;;
68398;SDS011;56258;52.196;13.868;2022-11-15T03:40:38;6.78;;;2.60;;
68398;SDS011;56258;52.196;13.868;2022-11-15T03:43:09;6.72;;;2.35;;
68398;SDS011;56258;52.196;13.868;2022-11-15T03:46:05;9.60;;;2.47;;
68398;SDS011;56258;52.196;13.868;2022-11-15T03:48:39;6.55;;;2.30;;
68398;SDS011;56258;52.196;13.868;2022-11-15T03:51:09;6.68;;;2.67;;
68398;SDS011;56258;52.196;13.868;2022-11-15T03:53:37;6.78;;;2.30;;
68398;SDS011;56258;52.196;13.868;2022-11-15T03:56:04;7.13;;;2.42;;
68398;SDS011;56258;52.196;13.868;2022-11-15T03:58:30;7.80;;;3.05;;
68398;SDS011;56258;52.196;13.868;2022-11-15T04:00:57;6.18;;;2.40;;
68398;SDS011;56258;52.196;13.868;2022-11-15T04:03:25;7.00;;;2.72;;
68398;SDS011;56258;52.196;13.868;2022-11-15T04:05:52;6.82;;;2.55;;
68398;SDS011;56258;52.196;13.868;2022-11-15T04:08:18;7.47;;;2.80;;
68398;SDS011;56258;52.196;13.868;2022-11-15T04:10:45;6.90;;;2.90;;
68398;SDS011;56258;52.196;13.868;2022-11-15T04:13:15;6.68;;;2.60;;
68398;SDS011;56258;52.196;13.868;2022-11-15T04:15:41;7.50;;;2.78;;
68398;SDS011;56258;52.196;13.868;2022-11-15T04:18:08;6.68;;;2.55;;
68398;SDS011;56258;52.196;13.868;2022-11-15T04:20:34;6.53;;;2.53;;
68398;SDS011;56258;52.196;13.868;2022-11-15T04:23:20;7.15;;;2.72;;
68398;SDS011;56258;52.196;13.868;2022-11-15T04:26:08;6.80;;;2.78;;
68398;SDS011;56258;52.196;13.868;2022-11-15T04:28:37;6.95;;;2.92;;
68398;SDS011;56258;52.196;13.868;2022-11-15T04:31:24;7.00;;;2.88;;
68398;SDS011;56258;52.196;13.868;2022-11-15T04:33:51;6.93;;;2.75;;
68398;SDS011;56258;52.196;13.868;2022-11-15T04:36:18;6.95;;;2.92;;
68398;SDS011;56258;52.196;13.868;2022-11-15T04:39:06;7.13;;;2.88;;
68398;SDS011;56258;52.196;13.868;2022-11-15T04:41:32;7.65;;;3.13;;
68398;SDS011;56258;52.196;13.868;2022-11-15T04:43:59;6.93;;;2.63;;
68398;SDS011;56258;52.196;13.868;2022-11-15T04:46:26;7.00;;;2.80;;
68398;SDS011;56258;52.196;13.868;2022-11-15T04:48:53;7.95;;;3.20;;
68398;SDS011;56258;52.196;13.868;2022-11-15T04:51:24;6.63;;;2.70;;
68398;SDS011;56258;52.196;13.868;2022-11-15T04:53:51;7.07;;;2.95;;
68398;SDS011;56258;52.196;13.868;2022-11-15T04:56:17;8.13;;;3.25;;
68398;SDS011;56258;52.196;13.868;2022-11-15T04:58:44;6.85;;;3.10;;
68398;SDS011;56258;52.196;13.868;2022-11-15T05:01:11;7.43;;;3.00;;
68398;SDS011;56258;52.196;13.868;2022-11-15T05:03:41;6.75;;;3.00;;
68398;SDS011;56258;52.196;13.868;2022-11-15T05:06:27;6.60;;;2.70;;
68398;SDS011;56258;52.196;13.868;2022-11-15T05:08:53;7.60;;;2.90;;
68398;SDS011;56258;52.196;13.868;2022-11-15T05:11:20;7.90;;;3.13;;
68398;SDS011;56258;52.196;13.868;2022-11-15T05:13:48;7.47;;;3.00;;
68398;SDS011;56258;52.196;13.868;2022-11-15T05:16:15;7.03;;;2.90;;
68398;SDS011;56258;52.196;13.868;2022-11-15T05:18:41;7.93;;;3.00;;
68398;SDS011;56258;52.196;13.868;2022-11-15T05:21:09;7.28;;;2.97;;
68398;SDS011;56258;52.196;13.868;2022-11-15T05:23:41;7.07;;;2.85;;
68398;SDS011;56258;52.196;13.868;2022-11-15T05:26:07;8.23;;;3.28;;
68398;SDS011;56258;52.196;13.868;2022-11-15T05:28:35;7.45;;;3.10;;
68398;SDS011;56258;52.196;13.868;2022-11-15T05:33:29;7.57;;;3.03;;
68398;SDS011;56258;52.196;13.868;2022-11-15T05:35:59;7.82;;;3.05;;
68398;SDS011;56258;52.196;13.868;2022-11-15T05:38:28;7.57;;;3.08;;
68398;SDS011;56258;52.196;13.868;2022-11-15T05:40:55;8.13;;;3.35;;
68398;SDS011;56258;52.196;13.868;2022-11-15T05:43:21;8.70;;;3.42;;
68398;SDS011;56258;52.196;13.868;2022-11-15T05:45:49;7.60;;;3.03;;
68398;SDS011;56258;52.196;13.868;2022-11-15T05:48:16;7.20;;;3.03;;
68398;SDS011;56258;52.196;13.868;2022-11-15T05:50:43;8.30;;;2.97;;
68398;SDS011;56258;52.196;13.868;2022-11-15T05:53:14;7.53;;;3.10;;
68398;SDS011;56258;52.196;13.868;2022-11-15T05:55:45;7.65;;;3.20;;
68398;SDS011;56258;52.196;13.868;2022-11-15T05:58:11;7.65;;;3.10;;
68398;SDS011;56258;52.196;13.868;2022-11-15T06:00:38;8.05;;;3.30;;
68398;SDS011;56258;52.196;13.868;2022-11-15T06:03:05;7.90;;;3.13;;
68398;SDS011;56258;52.196;13.868;2022-11-15T06:05:32;7.65;;;3.05;;
68398;SDS011;56258;52.196;13.868;2022-11-15T06:07:58;7.50;;;3.10;;
68398;SDS011;56258;52.196;13.868;2022-11-15T06:10:25;7.80;;;3.20;;
68398;SDS011;56258;52.196;13.868;2022-11-15T06:13:01;7.47;;;3.00;;
68398;SDS011;56258;52.196;13.868;2022-11-15T06:15:29;7.18;;;2.92;;
68398;SDS011;56258;52.196;13.868;2022-11-15T06:17:56;7.78;;;3.35;;
68398;SDS011;56258;52.196;13.868;2022-11-15T06:20:26;7.70;;;3.30;;
68398;SDS011;56258;52.196;13.868;2022-11-15T06:22:58;7.45;;;3.20;;
68398;SDS011;56258;52.196;13.868;2022-11-15T06:25:29;7.30;;;2.90;;
68398;SDS011;56258;52.196;13.868;2022-11-15T06:27:57;7.85;;;3.40;;
68398;SDS011;56258;52.196;13.868;2022-11-15T06:30:25;7.53;;;3.20;;
68398;SDS011;56258;52.196;13.868;2022-11-15T06:32:58;7.40;;;3.20;;
68398;SDS011;56258;52.196;13.868;2022-11-15T06:35:26;7.53;;;3.10;;
68398;SDS011;56258;52.196;13.868;2022-11-15T06:37:53;8.00;;;3.42;;
68398;SDS011;56258;52.196;13.868;2022-11-15T06:40:20;6.97;;;2.75;;
68398;SDS011;56258;52.196;13.868;2022-11-15T06:42:47;7.60;;;3.08;;
68398;SDS011;56258;52.196;13.868;2022-11-15T06:45:13;9.07;;;3.38;;
68398;SDS011;56258;52.196;13.868;2022-11-15T06:47:46;8.05;;;3.35;;
68398;SDS011;56258;52.196;13.868;2022-11-15T06:50:13;8.07;;;3.30;;
68398;SDS011;56258;52.196;13.868;2022-11-15T06:52:40;9.05;;;3.55;;
68398;SDS011;56258;52.196;13.868;2022-11-15T06:55:07;8.90;;;3.33;;
68398;SDS011;56258;52.196;13.868;2022-11-15T06:57:34;8.95;;;3.00;;
68398;SDS011;56258;52.196;13.868;2022-11-15T07:00:05;10.88;;;3.60;;
68398;SDS011;56258;52.196;13.868;2022-11-15T07:02:32;7.88;;;3.20;;
68398;SDS011;56258;52.196;13.868;2022-11-15T07:04:58;8.35;;;3.40;;
68398;SDS011;56258;52.196;13.868;2022-11-15T07:07:25;9.95;;;3.60;;
68398;SDS011;56258;52.196;13.868;2022-11-15T07:09:52;8.10;;;3.20;;
68398;SDS011;56258;52.196;13.868;2022-11-15T07:12:18;8.30;;;3.60;;
68398;SDS011;56258;52.196;13.868;2022-11-15T07:14:45;8.50;;;3.40;;
68398;SDS011;56258;52.196;13.868;2022-11-15T07:17:12;8.40;;;3.42;;
68398;SDS011;56258;52.196;13.868;2022-11-15T07:19:38;9.02;;;3.58;;
68398;SDS011;56258;52.196;13.868;2022-11-15T07:22:05;7.57;;;2.88;;
68398;SDS011;56258;52.196;13.868;2022-11-15T07:24:31;11.10;;;3.28;;
68398;SDS011;56258;52.196;13.868;2022-11-15T07:26:58;9.57;;;3.85;;
68398;SDS011;56258;52.196;13.868;2022-11-15T07:29:25;8.13;;;3.47;;
68398;SDS011;56258;52.196;13.868;2022-11-15T07:31:51;10.30;;;3.33;;
68398;SDS011;56258;52.196;13.868;2022-11-15T07:34:18;9.18;;;3.45;;
68398;SDS011;56258;52.196;13.868;2022-11-15T07:36:44;7.78;;;3.50;;
68398;SDS011;56258;52.196;13.868;2022-11-15T07:39:11;8.35;;;3.60;;
68398;SDS011;56258;52.196;13.868;2022-11-15T07:41:38;8.48;;;3.45;;
68398;SDS011;56258;52.196;13.868;2022-11-15T07:44:05;8.35;;;3.30;;
68398;SDS011;56258;52.196;13.868;2022-11-15T07:46:31;8.25;;;3.10;;
68398;SDS011;56258;52.196;13.868;2022-11-15T07:48:58;8.75;;;3.58;;
68398;SDS011;56258;52.196;13.868;2022-11-15T07:51:24;10.50;;;3.50;;
68398;SDS011;56258;52.196;13.868;2022-11-15T07:53:51;8.05;;;3.47;;
68398;SDS011;56258;52.196;13.868;2022-11-15T07:56:17;8.00;;;3.22;;
68398;SDS011;56258;52.196;13.868;2022-11-15T07:58:45;8.30;;;3.53;;
68398;SDS011;56258;52.196;13.868;2022-11-15T08:01:12;9.52;;;3.63;;
68398;SDS011;56258;52.196;13.868;2022-11-15T08:03:39;8.27;;;3.75;;
68398;SDS011;56258;52.196;13.868;2022-11-15T08:06:06;8.48;;;3.42;;
68398;SDS011;56258;52.196;13.868;2022-11-15T08:08:32;7.28;;;3.25;;
68398;SDS011;56258;52.196;13.868;2022-11-15T08:10:59;7.78;;;3.50;;
68398;SDS011;56258;52.196;13.868;2022-11-15T08:13:26;8.00;;;3.55;;
68398;SDS011;56258;52.196;13.868;2022-11-15T08:16:00;8.30;;;3.53;;
68398;SDS011;56258;52.196;13.868;2022-11-15T08:18:27;8.80;;;3.70;;
68398;SDS011;56258;52.196;13.868;2022-11-15T08:20:57;8.55;;;3.50;;
68398;SDS011;56258;52.196;13.868;2022-11-15T08:23:25;7.72;;;3.35;;
68398;SDS011;56258;52.196;13.868;2022-11-15T08:25:52;7.82;;;3.53;;
68398;SDS011;56258;52.196;13.868;2022-11-15T08:28:18;8.20;;;3.60;;
68398;SDS011;56258;52.196;13.868;2022-11-15T08:30:45;8.00;;;3.45;;
68398;SDS011;56258;52.196;13.868;2022-11-15T08:33:12;7.85;;;3.45;;
68398;SDS011;56258;52.196;13.868;2022-11-15T08:35:40;7.07;;;2.85;;
68398;SDS011;56258;52.196;13.868;2022-11-15T08:38:09;8.90;;;3.47;;
68398;SDS011;56258;52.196;13.868;2022-11-15T08:40:36;8.73;;;3.80;;
68398;SDS011;56258;52.196;13.868;2022-11-15T08:43:03;8.25;;;3.60;;
68398;SDS011;56258;52.196;13.868;2022-11-15T08:45:30;8.20;;;3.40;;
68398;SDS011;56258;52.196;13.868;2022-11-15T08:47:57;8.48;;;3.50;;
68398;SDS011;56258;52.196;13.868;2022-11-15T08:50:28;8.68;;;3.80;;
68398;SDS011;56258;52.196;13.868;2022-11-15T08:52:54;8.52;;;3.83;;
68398;SDS011;56258;52.196;13.868;2022-11-15T08:55:21;8.45;;;3.88;;
68398;SDS011;56258;52.196;13.868;2022-11-15T08:57:50;8.43;;;3.80;;
68398;SDS011;56258;52.196;13.868;2022-11-15T09:00:16;8.32;;;3.67;;
68398;SDS011;56258;52.196;13.868;2022-11-15T09:02:43;8.40;;;3.67;;
68398;SDS011;56258;52.196;13.868;2022-11-15T09:05:10;8.55;;;4.00;;
68398;SDS011;56258;52.196;13.868;2022-11-15T09:07:36;8.00;;;3.53;;
68398;SDS011;56258;52.196;13.868;2022-11-15T09:10:03;8.20;;;3.60;;
68398;SDS011;56258;52.196;13.868;2022-11-15T09:12:30;8.48;;;3.80;;
68398;SDS011;56258;52.196;13.868;2022-11-15T09:14:56;8.52;;;3.83;;
68398;SDS011;56258;52.196;13.868;2022-11-15T09:17:24;9.05;;;4.18;;
68398;SDS011;56258;52.196;13.868;2022-11-15T09:19:50;8.55;;;4.10;;
68398;SDS011;56258;52.196;13.868;2022-11-15T09:22:17;8.35;;;3.70;;
68398;SDS011;56258;52.196;13.868;2022-11-15T09:24:44;7.72;;;3.58;;
68398;SDS011;56258;52.196;13.868;2022-11-15T09:27:11;7.40;;;3.40;;
68398;SDS011;56258;52.196;13.868;2022-11-15T09:29:39;8.75;;;3.60;;
68398;SDS011;56258;52.196;13.868;2022-11-15T09:32:05;7.80;;;3.30;;
68398;SDS011;56258;52.196;13.868;2022-11-15T09:34:32;6.78;;;2.75;;
68398;SDS011;56258;52.196;13.868;2022-11-15T09:36:59;7.13;;;3.30;;
68398;SDS011;56258;52.196;13.868;2022-11-15T09:39:25;8.38;;;3.83;;
68398;SDS011;56258;52.196;13.868;2022-11-15T09:44:59;8.77;;;3.45;;
68398;SDS011;56258;52.196;13.868;2022-11-15T09:50:11;7.93;;;3.45;;
68398;SDS011;56258;52.196;13.868;2022-11-15T09:52:41;7.85;;;3.50;;
68398;SDS011;56258;52.196;13.868;2022-11-15T09:55:10;7.43;;;3.20;;
68398;SDS011;56258;52.196;13.868;2022-11-15T10:05:52;7.85;;;3.20;;
68398;SDS011;56258;52.196;13.868;2022-11-15T10:11:27;7.70;;;3.00;;
68398;SDS011;56258;52.196;13.868;2022-11-15T10:14:15;7.30;;;3.28;;
68398;SDS011;56258;52.196;13.868;2022-11-15T10:16:57;7.38;;;3.30;;
68398;SDS011;56258;52.196;13.868;2022-11-15T10:19:54;7.05;;;2.95;;
68398;SDS011;56258;52.196;13.868;2022-11-15T10:22:44;6.82;;;2.88;;
68398;SDS011;56258;52.196;13.868;2022-11-15T10:25:21;7.68;;;3.00;;
68398;SDS011;56258;52.196;13.868;2022-11-15T10:27:59;8.18;;;3.08;;
68398;SDS011;56258;52.196;13.868;2022-11-15T10:30:54;7.15;;;3.22;;
68398;SDS011;56258;52.196;13.868;2022-11-15T10:33:23;7.05;;;2.75;;
68398;SDS011;56258;52.196;13.868;2022-11-15T10:41:19;6.60;;;2.50;;
68398;SDS011;56258;52.196;13.868;2022-11-15T10:44:03;6.47;;;2.50;;
68398;SDS011;56258;52.196;13.868;2022-11-15T10:46:43;7.10;;;2.78;;
68398;SDS011;56258;52.196;13.868;2022-11-15T10:49:23;8.18;;;2.70;;
68398;SDS011;56258;52.196;13.868;2022-11-15T10:54:44;7.35;;;2.80;;
68398;SDS011;56258;52.196;13.868;2022-11-15T10:57:19;7.05;;;2.60;;
68398;SDS011;56258;52.196;13.868;2022-11-15T10:59:49;7.00;;;2.80;;
68398;SDS011;56258;52.196;13.868;2022-11-15T11:02:31;6.85;;;2.70;;
68398;SDS011;56258;52.196;13.868;2022-11-15T11:10:37;7.55;;;2.85;;
68398;SDS011;56258;52.196;13.868;2022-11-15T11:13:29;6.68;;;2.53;;
68398;SDS011;56258;52.196;13.868;2022-11-15T11:21:19;6.00;;;2.30;;
68398;SDS011;56258;52.196;13.868;2022-11-15T11:24:14;6.28;;;2.20;;
68398;SDS011;56258;52.196;13.868;2022-11-15T11:30:24;6.18;;;2.05;;
68398;SDS011;56258;52.196;13.868;2022-11-15T11:44:33;6.47;;;2.00;;
68398;SDS011;56258;52.196;13.868;2022-11-15T11:47:36;5.82;;;2.15;;
68398;SDS011;56258;52.196;13.868;2022-11-15T11:50:25;6.10;;;2.20;;
68398;SDS011;56258;52.196;13.868;2022-11-15T11:58:21;6.15;;;2.33;;
68398;SDS011;56258;52.196;13.868;2022-11-15T12:01:25;7.53;;;2.15;;
68398;SDS011;56258;52.196;13.868;2022-11-15T12:04:03;6.22;;;1.98;;
68398;SDS011;56258;52.196;13.868;2022-11-15T12:11:55;6.35;;;2.00;;
68398;SDS011;56258;52.196;13.868;2022-11-15T12:14:38;5.72;;;1.92;;
68398;SDS011;56258;52.196;13.868;2022-11-15T12:17:10;5.65;;;2.17;;
68398;SDS011;56258;52.196;13.868;2022-11-15T12:19:38;6.18;;;2.28;;
68398;SDS011;56258;52.196;13.868;2022-11-15T12:22:09;5.57;;;1.73;;
68398;SDS011;56258;52.196;13.868;2022-11-15T12:24:44;5.78;;;1.98;;
68398;SDS011;56258;52.196;13.868;2022-11-15T12:27:25;6.57;;;2.05;;
68398;SDS011;56258;52.196;13.868;2022-11-15T12:30:17;6.10;;;2.08;;
68398;SDS011;56258;52.196;13.868;2022-11-15T12:32:55;6.10;;;2.00;;
68398;SDS011;56258;52.196;13.868;2022-11-15T12:35:27;5.70;;;2.00;;
68398;SDS011;56258;52.196;13.868;2022-11-15T12:37:59;5.90;;;1.80;;
68398;SDS011;56258;52.196;13.868;2022-11-15T12:40:33;5.60;;;1.70;;
68398;SDS011;56258;52.196;13.868;2022-11-15T12:45:42;5.40;;;1.70;;
68398;SDS011;56258;52.196;13.868;2022-11-15T13:06:48;6.57;;;1.77;;
68398;SDS011;56258;52.196;13.868;2022-11-15T13:11:56;5.35;;;1.50;;
68398;SDS011;56258;52.196;13.868;2022-11-15T13:14:40;5.60;;;1.48;;
68398;SDS011;56258;52.196;13.868;2022-11-15T13:22:45;5.40;;;1.60;;
68398;SDS011;56258;52.196;13.868;2022-11-15T13:33:46;5.63;;;1.48;;
68398;SDS011;56258;52.196;13.868;2022-11-15T13:36:23;5.18;;;1.70;;
68398;SDS011;56258;52.196;13.868;2022-11-15T13:39:06;5.32;;;1.50;;
68398;SDS011;56258;52.196;13.868;2022-11-15T13:41:47;5.97;;;1.90;;
68398;SDS011;56258;52.196;13.868;2022-11-15T13:44:23;5.60;;;1.70;;
68398;SDS011;56258;52.196;13.868;2022-11-15T13:47:09;5.35;;;1.58;;
68398;SDS011;56258;52.196;13.868;2022-11-15T13:49:39;5.35;;;1.50;;
68398;SDS011;56258;52.196;13.868;2022-11-15T13:52:07;5.18;;;1.40;;
68398;SDS011;56258;52.196;13.868;2022-11-15T13:54:47;5.25;;;1.40;;
68398;SDS011;56258;52.196;13.868;2022-11-15T13:57:25;5.40;;;1.63;;
68398;SDS011;56258;52.196;13.868;2022-11-15T13:59:57;5.13;;;1.40;;
68398;SDS011;56258;52.196;13.868;2022-11-15T14:02:32;5.15;;;1.60;;
68398;SDS011;56258;52.196;13.868;2022-11-15T14:05:17;5.40;;;1.42;;
68398;SDS011;56258;52.196;13.868;2022-11-15T14:07:58;5.47;;;1.63;;
68398;SDS011;56258;52.196;13.868;2022-11-15T14:13:04;5.18;;;1.55;;
68398;SDS011;56258;52.196;13.868;2022-11-15T14:15:37;5.70;;;1.50;;
68398;SDS011;56258;52.196;13.868;2022-11-15T14:18:05;5.35;;;1.60;;
68398;SDS011;56258;52.196;13.868;2022-11-15T14:20:36;4.95;;;1.40;;
68398;SDS011;56258;52.196;13.868;2022-11-15T14:23:24;5.38;;;1.45;;
68398;SDS011;56258;52.196;13.868;2022-11-15T14:25:57;5.10;;;1.42;;
68398;SDS011;56258;52.196;13.868;2022-11-15T14:30:52;5.30;;;1.50;;
68398;SDS011;56258;52.196;13.868;2022-11-15T14:33:30;5.65;;;1.60;;
68398;SDS011;56258;52.196;13.868;2022-11-15T14:38:42;5.40;;;1.80;;
68398;SDS011;56258;52.196;13.868;2022-11-15T14:41:22;6.07;;;1.45;;
68398;SDS011;56258;52.196;13.868;2022-11-15T14:43:52;5.15;;;1.50;;
68398;SDS011;56258;52.196;13.868;2022-11-15T14:46:19;5.35;;;1.70;;
68398;SDS011;56258;52.196;13.868;2022-11-15T14:48:45;5.60;;;1.90;;
68398;SDS011;56258;52.196;13.868;2022-11-15T14:51:13;5.30;;;1.45;;
68398;SDS011;56258;52.196;13.868;2022-11-15T14:53:41;5.22;;;1.50;;
68398;SDS011;56258;52.196;13.868;2022-11-15T14:56:09;4.93;;;1.58;;
68398;SDS011;56258;52.196;13.868;2022-11-15T14:58:36;5.53;;;1.30;;
68398;SDS011;56258;52.196;13.868;2022-11-15T15:01:10;5.60;;;1.60;;
68398;SDS011;56258;52.196;13.868;2022-11-15T15:03:40;5.15;;;1.67;;
68398;SDS011;56258;52.196;13.868;2022-11-15T15:06:07;4.97;;;1.20;;
68398;SDS011;56258;52.196;13.868;2022-11-15T15:08:42;5.00;;;1.20;;
68398;SDS011;56258;52.196;13.868;2022-11-15T15:11:14;5.68;;;1.50;;
68398;SDS011;56258;52.196;13.868;2022-11-15T15:13:46;4.57;;;1.17;;
68398;SDS011;56258;52.196;13.868;2022-11-15T15:16:13;4.90;;;1.17;;
68398;SDS011;56258;52.196;13.868;2022-11-15T15:18:40;5.10;;;1.20;;
68398;SDS011;56258;52.196;13.868;2022-11-15T15:24:03;5.75;;;1.50;;
68398;SDS011;56258;52.196;13.868;2022-11-15T15:26:30;4.97;;;1.20;;
68398;SDS011;56258;52.196;13.868;2022-11-15T15:29:01;4.82;;;1.15;;
68398;SDS011;56258;52.196;13.868;2022-11-15T15:31:27;4.95;;;1.30;;
68398;SDS011;56258;52.196;13.868;2022-11-15T15:33:54;5.20;;;1.58;;
68398;SDS011;56258;52.196;13.868;2022-11-15T15:36:21;4.82;;;1.10;;
68398;SDS011;56258;52.196;13.868;2022-11-15T15:38:47;5.50;;;1.60;;
68398;SDS011;56258;52.196;13.868;2022-11-15T15:41:15;6.65;;;1.40;;
68398;SDS011;56258;52.196;13.868;2022-11-15T15:43:42;4.60;;;1.40;;
68398;SDS011;56258;52.196;13.868;2022-11-15T15:46:14;4.65;;;1.20;;
68398;SDS011;56258;52.196;13.868;2022-11-15T15:48:41;4.90;;;1.40;;
68398;SDS011;56258;52.196;13.868;2022-11-15T15:51:08;5.22;;;1.10;;
68398;SDS011;56258;52.196;13.868;2022-11-15T15:53:45;4.85;;;1.17;;
68398;SDS011;56258;52.196;13.868;2022-11-15T15:56:12;4.40;;;1.20;;
68398;SDS011;56258;52.196;13.868;2022-11-15T15:58:38;5.05;;;1.45;;
68398;SDS011;56258;52.196;13.868;2022-11-15T16:01:05;5.13;;;1.10;;
68398;SDS011;56258;52.196;13.868;2022-11-15T16:03:32;4.90;;;1.25;;
68398;SDS011;56258;52.196;13.868;2022-11-15T16:05:59;4.93;;;1.27;;
68398;SDS011;56258;52.196;13.868;2022-11-15T16:08:26;5.20;;;1.48;;
68398;SDS011;56258;52.196;13.868;2022-11-15T16:11:03;5.93;;;1.38;;
68398;SDS011;56258;52.196;13.868;2022-11-15T16:13:32;5.38;;;1.30;;
68398;SDS011;56258;52.196;13.868;2022-11-15T16:15:59;4.93;;;1.17;;
68398;SDS011;56258;52.196;13.868;2022-11-15T16:18:26;5.65;;;1.40;;
68398;SDS011;56258;52.196;13.868;2022-11-15T16:20:53;5.07;;;1.35;;
68398;SDS011;56258;52.196;13.868;2022-11-15T16:23:22;4.55;;;1.10;;
68398;SDS011;56258;52.196;13.868;2022-11-15T16:25:51;4.90;;;1.10;;
68398;SDS011;56258;52.196;13.868;2022-11-15T16:28:22;4.57;;;1.33;;
68398;SDS011;56258;52.196;13.868;2022-11-15T16:31:03;4.47;;;1.00;;
68398;SDS011;56258;52.196;13.868;2022-11-15T16:33:37;4.60;;;1.30;;
68398;SDS011;56258;52.196;13.868;2022-11-15T16:36:05;4.65;;;0.95;;
68398;SDS011;56258;52.196;13.868;2022-11-15T16:38:40;4.82;;;1.20;;
68398;SDS011;56258;52.196;13.868;2022-11-15T16:41:07;5.13;;;1.20;;
68398;SDS011;56258;52.196;13.868;2022-11-15T16:43:33;5.65;;;1.42;;
68398;SDS011;56258;52.196;13.868;2022-11-15T16:46:02;4.90;;;0.90;;
68398;SDS011;56258;52.196;13.868;2022-11-15T16:48:38;4.43;;;1.02;;
68398;SDS011;56258;52.196;13.868;2022-11-15T16:51:05;4.50;;;1.10;;
68398;SDS011;56258;52.196;13.868;2022-11-15T16:53:32;4.72;;;1.00;;
68398;SDS011;56258;52.196;13.868;2022-11-15T16:55:59;4.95;;;1.20;;
68398;SDS011;56258;52.196;13.868;2022-11-15T16:58:26;5.55;;;1.00;;
68398;SDS011;56258;52.196;13.868;2022-11-15T17:00:53;4.43;;;1.00;;
68398;SDS011;56258;52.196;13.868;2022-11-15T17:03:22;4.70;;;1.00;;
68398;SDS011;56258;52.196;13.868;2022-11-15T17:05:50;4.35;;;1.10;;
68398;SDS011;56258;52.196;13.868;2022-11-15T17:08:17;4.63;;;1.05;;
68398;SDS011;56258;52.196;13.868;2022-11-15T17:10:47;4.60;;;1.10;;
68398;SDS011;56258;52.196;13.868;2022-11-15T17:13:13;5.03;;;1.20;;
68398;SDS011;56258;52.196;13.868;2022-11-15T17:15:43;4.65;;;1.00;;
68398;SDS011;56258;52.196;13.868;2022-11-15T17:18:10;4.90;;;0.95;;